METAR AND TAF INFORMATION
METAR FOR ENRM
ADDS - METARS form results

(2316 UTC 10 December 2018)
Data provider http://aviationweather.gov/metar/data/
 
Forecast for: ENRM (RORVIK/RYUM , NO)
Text: TAF ENRM 101700Z 1018/1021 01008KT 9999 FEW020 BKN050
Forecast period: 1800 to 2100 UTC 10 December 2018
Forecast type: FROM: standard forecast or significant change
Winds: from the N (10 degrees) at 9 MPH (8 knots; 4.1 m/s)
Visibility: 6 or more miles 10+ km)
Ceiling: 5000 feet AGL
Clouds: few clouds at 2000 feet AGL
broken clouds at 5000 feet AGL
Weather: no significant weather forecast for this period
Text: TEMPO 1018/1021 3000 SHRASN BKN012CB
Forecast period: 1800 to 2100 UTC 10 December 2018
Forecast type: TEMPORARY: The following changes expected for less than half the time period
Visibility: 1.86 miles (2.99 km)
Ceiling: 1200 feet AGL
Clouds: broken clouds at 1200 feet AGL
Weather: SHRA SHSN  (rain showers, snow showers)

 AIRPORT MAP

 RUNWAY INFORMATION
Runway 04 Runway length 2887 ft Runway width 0 ft
Runway elevation 9 ft Runway displaced threshold 0 ft Runway heading 0
Runway 22 Runway length 2887 ft Runway width 0 ft
Runway elevation 14 ft Runway displaced threshold 0 ft Runway heading 0

 AIRPORT FREQUENCIES

 AIRPORT NEAR NAVIGATION AIDS
Type VOR-DME Name Roervik Frequency 112700 KHZ



Powered by Virtual Airlines Manager [v2.6.2]